Time;durP1;ratioP1;P1;durP2;ratioP2;P2;SDS_P1;SDS_P2;PMS_P1;PMS_P2;Temp;Humidity;BMP_temperature;BMP_pressure;BME280_temperature;BME280_humidity;BME280_pressure;Samples;Min_cycle;Max_cycle;Signal;HPM_P1;HPM_P2
2022/02/18 00:00:14;;;;;;;9.75;5.55;;;;;;;8.07;56.35;94766.19;5025766;28;20029;-78
2022/02/18 00:02:40;;;;;;;9.68;5.72;;;;;;;8.11;56.16;94775.53;5025627;28;20021;-77
2022/02/18 00:05:05;;;;;;;8.30;5.50;;;;;;;8.16;56.16;94770.47;5023976;28;20565;-76
2022/02/18 00:07:31;;;;;;;12.43;6.00;;;;;;;8.22;55.66;94787.63;5024943;28;20496;-76
2022/02/18 00:09:56;;;;;;;7.05;5.25;;;;;;;8.27;56.06;94780.72;5025544;28;20022;-75
2022/02/18 00:12:21;;;;;;;13.32;6.63;;;;;;;8.31;55.90;94772.34;5024742;28;20042;-75
2022/02/18 00:14:47;;;;;;;10.75;5.65;;;;;;;8.31;55.72;94783.03;5025536;28;20029;-75
2022/02/18 00:17:12;;;;;;;11.55;5.32;;;;;;;8.39;55.85;94769.63;5025064;28;20030;-76
2022/02/18 00:19:38;;;;;;;10.70;5.15;;;;;;;8.31;55.98;94783.88;5025288;28;20095;-75
2022/02/18 00:22:03;;;;;;;9.95;5.07;;;;;;;8.32;56.57;94779.38;5025512;28;20026;-75
2022/02/18 00:24:29;;;;;;;8.35;5.18;;;;;;;8.36;56.59;94791.38;5023480;28;20029;-75
2022/02/18 00:26:54;;;;;;;10.80;5.75;;;;;;;8.34;56.96;94788.03;5024992;28;20069;-75
2022/02/18 00:29:20;;;;;;;11.63;5.85;;;;;;;8.39;57.23;94770.47;5024773;28;20025;-76
2022/02/18 00:31:45;;;;;;;14.15;6.05;;;;;;;8.44;56.83;94763.75;5025361;28;20025;-75
2022/02/18 00:34:10;;;;;;;9.02;5.45;;;;;;;8.52;57.05;94736.94;5024586;28;20033;-76
2022/02/18 00:36:36;;;;;;;10.63;5.88;;;;;;;8.55;56.61;94744.63;5025085;28;20544;-76
2022/02/18 00:39:02;;;;;;;10.93;6.00;;;;;;;8.52;57.16;94777.88;5023836;28;20083;-75
2022/02/18 00:41:27;;;;;;;14.32;5.63;;;;;;;8.40;57.66;94777.47;5024966;28;20399;-76
2022/02/18 00:43:52;;;;;;;10.10;5.45;;;;;;;8.45;57.68;94774.25;5024946;28;20404;-76
2022/02/18 00:46:18;;;;;;;9.48;5.50;;;;;;;8.44;57.79;94777.94;5025031;28;20389;-76
2022/02/18 00:48:43;;;;;;;11.07;5.50;;;;;;;8.46;57.98;94773.25;5025267;28;20523;-76
2022/02/18 00:51:09;;;;;;;10.30;5.32;;;;;;;8.48;57.32;94778.41;5023350;28;20029;-77
2022/02/18 00:53:34;;;;;;;7.78;4.35;;;;;;;8.45;57.08;94797.50;5024717;28;20214;-76
2022/02/18 00:56:00;;;;;;;9.68;4.40;;;;;;;8.52;56.57;94812.63;5024739;28;20025;-77
2022/02/18 00:58:25;;;;;;;7.68;4.53;;;;;;;8.55;56.72;94810.59;5023314;28;20029;-77
2022/02/18 01:00:51;;;;;;;9.98;4.70;;;;;;;8.57;56.58;94808.59;5023746;28;20026;-77
2022/02/18 01:03:19;;;;;;;8.18;4.45;;;;;;;8.57;56.42;94809.44;5023706;28;20087;-77
2022/02/18 01:05:46;;;;;;;8.95;4.50;;;;;;;8.55;56.21;94816.78;5024658;28;20248;-74
2022/02/18 01:08:11;;;;;;;7.15;4.68;;;;;;;8.61;56.18;94833.97;5024657;28;20037;-75
2022/02/18 01:10:36;;;;;;;7.13;4.80;;;;;;;8.65;56.08;94832.59;5025052;28;20115;-77
2022/02/18 01:13:02;;;;;;;7.32;5.13;;;;;;;8.61;56.43;94834.78;5024897;28;20096;-76
2022/02/18 01:15:27;;;;;;;6.80;4.80;;;;;;;8.47;56.14;94844.38;5024770;28;20391;-76
2022/02/18 01:17:53;;;;;;;10.38;5.68;;;;;;;8.51;55.80;94852.88;5024754;28;20033;-77
2022/02/18 01:20:19;;;;;;;11.80;6.50;;;;;;;8.40;55.41;94857.63;5024837;28;20048;-76
2022/02/18 01:22:44;;;;;;;10.57;6.55;;;;;;;8.19;55.19;94862.78;5024630;28;20049;-75
2022/02/18 01:25:10;;;;;;;11.10;5.72;;;;;;;8.03;55.15;94854.69;5024683;28;20025;-76
2022/02/18 01:27:36;;;;;;;8.80;5.85;;;;;;;7.96;55.53;94859.06;5024276;28;20033;-76
2022/02/18 01:30:02;;;;;;;10.00;6.03;;;;;;;7.95;55.43;94856.59;5024148;28;20064;-77
2022/02/18 01:32:28;;;;;;;8.27;5.20;;;;;;;7.90;55.48;94860.59;5023638;28;20145;-76
2022/02/18 01:34:53;;;;;;;11.32;6.20;;;;;;;7.84;55.70;94865.78;5022802;28;20033;-76
2022/02/18 01:37:18;;;;;;;10.20;4.85;;;;;;;7.88;55.47;94869.78;5024963;28;20032;-75
2022/02/18 01:39:44;;;;;;;9.40;5.10;;;;;;;7.90;55.49;94884.63;5022924;28;20083;-75
2022/02/18 01:42:09;;;;;;;10.73;5.88;;;;;;;7.99;55.11;94880.09;5024520;28;20091;-76
2022/02/18 01:44:40;;;;;;;7.85;5.05;;;;;;;7.97;55.23;94891.94;5022912;28;20115;-76
2022/02/18 01:47:07;;;;;;;10.70;4.70;;;;;;;7.96;54.82;94893.78;5024745;28;20060;-76
2022/02/18 01:49:32;;;;;;;8.25;5.03;;;;;;;7.97;55.01;94889.25;5027066;28;20029;-77
2022/02/18 01:51:58;;;;;;;12.68;4.93;;;;;;;7.98;54.98;94896.28;5027621;28;20021;-74
2022/02/18 01:54:23;;;;;;;8.95;4.53;;;;;;;8.01;54.96;94895.94;5010568;28;20052;-78
2022/02/18 01:56:48;;;;;;;8.98;5.03;;;;;;;8.06;54.44;94893.56;5026286;28;20032;-76
2022/02/18 01:59:14;;;;;;;9.00;4.50;;;;;;;8.10;54.59;94900.22;5028366;28;20018;-77
2022/02/18 02:01:41;;;;;;;9.90;4.10;;;;;;;8.11;54.37;94909.88;5027761;28;20022;-75
2022/02/18 02:04:06;;;;;;;6.60;4.32;;;;;;;8.13;54.31;94904.38;5028053;28;20034;-75
2022/02/18 02:06:32;;;;;;;6.55;4.40;;;;;;;8.08;54.64;94904.91;5027611;28;20389;-77
2022/02/18 02:08:57;;;;;;;8.63;5.10;;;;;;;8.14;54.92;94904.19;5009422;28;20014;-76
2022/02/18 02:11:23;;;;;;;6.20;4.18;;;;;;;8.19;54.41;94903.66;5026496;28;20045;-74
2022/02/18 02:13:50;;;;;;;8.63;3.95;;;;;;;8.17;54.10;94911.06;5027261;28;20021;-75
2022/02/18 02:16:16;;;;;;;6.25;3.85;;;;;;;8.22;53.99;94915.88;5027733;28;20042;-76
2022/02/18 02:18:41;;;;;;;7.13;3.67;;;;;;;8.26;54.06;94912.66;5027724;28;20060;-77
2022/02/18 02:21:10;;;;;;;8.25;4.25;;;;;;;8.23;54.07;94914.84;5027095;28;20401;-75
2022/02/18 02:23:36;;;;;;;5.75;3.38;;;;;;;8.22;54.10;94916.69;5027367;28;20024;-76
2022/02/18 02:26:01;;;;;;;7.10;3.85;;;;;;;8.24;54.31;94921.84;5025599;28;20025;-76
2022/02/18 02:28:26;;;;;;;6.15;3.65;;;;;;;8.24;54.22;94932.53;5027402;28;20524;-75
2022/02/18 02:30:52;;;;;;;4.78;3.55;;;;;;;8.19;54.25;94930.38;5026759;28;20411;-74
2022/02/18 02:33:17;;;;;;;8.95;3.75;;;;;;;8.15;54.31;94939.75;5027729;28;20037;-75
2022/02/18 02:35:43;;;;;;;8.75;3.72;;;;;;;8.10;55.20;94947.47;5027008;28;20025;-78
2022/02/18 02:38:08;;;;;;;6.43;3.80;;;;;;;8.08;55.01;94963.66;5025656;28;20029;-77
2022/02/18 02:40:34;;;;;;;5.47;3.42;;;;;;;8.19;54.71;94967.78;5027296;28;20036;-77
2022/02/18 02:42:59;;;;;;;8.93;3.78;;;;;;;8.26;54.74;94970.59;5025493;28;20030;-75
2022/02/18 02:45:25;;;;;;;5.03;3.47;;;;;;;8.25;54.91;94972.44;5026785;28;20040;-75
2022/02/18 02:47:50;;;;;;;6.60;3.63;;;;;;;8.24;54.97;94986.81;5026988;28;20026;-75
2022/02/18 02:50:16;;;;;;;9.60;3.78;;;;;;;8.33;54.54;95000.13;5026764;28;20025;-76
2022/02/18 02:52:42;;;;;;;7.55;4.18;;;;;;;8.29;55.14;95007.66;5025552;28;20036;-77
2022/02/18 02:55:10;;;;;;;5.95;3.90;;;;;;;8.23;55.96;95024.38;5027087;28;20033;-75
2022/02/18 02:57:36;;;;;;;6.57;4.20;;;;;;;8.22;56.64;95020.88;5026127;28;20037;-75
2022/02/18 03:00:02;;;;;;;7.88;4.43;;;;;;;8.21;56.92;95029.91;5026085;28;20041;-74
2022/02/18 03:02:27;;;;;;;9.52;4.60;;;;;;;8.15;57.86;95042.13;5026635;28;20021;-78
2022/02/18 03:04:53;;;;;;;6.05;3.80;;;;;;;8.09;58.24;95058.00;5026271;28;20029;-77
2022/02/18 03:07:18;;;;;;;8.43;4.80;;;;;;;8.05;59.15;95062.84;5026689;28;20025;-78
2022/02/18 03:09:44;;;;;;;7.93;5.13;;;;;;;8.08;60.08;95067.00;5026312;28;20638;-76
2022/02/18 03:12:09;;;;;;;9.23;4.93;;;;;;;8.06;60.36;95088.53;5026381;28;20053;-78
2022/02/18 03:14:35;;;;;;;7.95;4.63;;;;;;;7.99;61.82;95104.41;5026586;28;20037;-77
2022/02/18 03:17:00;;;;;;;11.40;5.05;;;;;;;7.90;63.64;95106.25;5026184;28;20025;-76
2022/02/18 03:19:25;;;;;;;7.57;5.20;;;;;;;7.78;64.52;95112.94;5026631;28;20029;-75
2022/02/18 03:21:51;;;;;;;11.90;5.38;;;;;;;7.73;65.06;95129.47;5026022;28;20046;-75
2022/02/18 03:24:21;;;;;;;12.05;5.60;;;;;;;7.54;66.38;95128.75;5025834;28;20076;-75
2022/02/18 03:26:47;;;;;;;11.57;5.57;;;;;;;7.47;67.08;95119.75;5026017;28;20033;-76
2022/02/18 03:29:12;;;;;;;10.23;5.22;;;;;;;7.37;67.77;95119.91;5026147;28;20407;-75
2022/02/18 03:31:37;;;;;;;8.02;5.30;;;;;;;7.29;68.01;95138.56;5026353;28;20025;-75
2022/02/18 03:34:03;;;;;;;8.18;5.25;;;;;;;7.19;68.60;95153.91;5026468;28;20029;-76
2022/02/18 03:36:29;;;;;;;8.02;5.13;;;;;;;7.15;68.92;95164.06;5026196;28;20026;-76
2022/02/18 03:38:55;;;;;;;8.20;5.00;;;;;;;7.14;68.97;95173.06;5025860;28;20029;-76
2022/02/18 03:41:21;;;;;;;9.60;5.82;;;;;;;7.09;69.37;95170.88;5025781;28;20026;-76
2022/02/18 03:43:46;;;;;;;8.70;5.35;;;;;;;7.02;69.58;95178.69;5025820;28;20025;-78
2022/02/18 03:46:12;;;;;;;15.75;4.90;;;;;;;6.99;69.74;95183.50;5024379;28;20561;-77
2022/02/18 03:48:38;;;;;;;9.85;5.13;;;;;;;6.96;70.09;95190.00;5024106;28;20040;-76
2022/02/18 03:51:03;;;;;;;10.70;5.63;;;;;;;6.92;70.52;95176.16;5026262;28;20025;-77
2022/02/18 03:53:29;;;;;;;9.10;4.53;;;;;;;6.80;70.20;95182.78;5025721;28;20156;-74
2022/02/18 03:55:54;;;;;;;8.68;4.70;;;;;;;6.78;70.40;95187.41;5026014;28;20079;-76
2022/02/18 03:58:20;;;;;;;7.38;4.25;;;;;;;6.74;70.53;95197.56;5025326;28;20404;-75
2022/02/18 04:00:46;;;;;;;8.10;3.92;;;;;;;6.86;69.52;95197.28;5025313;28;20113;-75
2022/02/18 04:03:11;;;;;;;6.15;4.13;;;;;;;6.95;68.65;95200.84;5025048;28;20025;-76
2022/02/18 04:05:37;;;;;;;7.10;3.85;;;;;;;6.87;68.54;95198.94;5025270;28;20123;-75
2022/02/18 04:08:03;;;;;;;5.03;3.10;;;;;;;6.89;68.05;95202.28;5024503;28;20017;-76
2022/02/18 04:10:28;;;;;;;9.27;2.15;;;;;;;6.95;66.86;95222.16;5024609;28;20033;-75
2022/02/18 04:12:54;;;;;;;4.55;2.30;;;;;;;6.92;66.32;95228.63;5024230;28;20056;-76
2022/02/18 04:15:19;;;;;;;5.90;1.80;;;;;;;6.83;64.98;95229.59;5025149;28;20034;-75
2022/02/18 04:17:45;;;;;;;2.20;1.50;;;;;;;6.75;64.00;95212.56;5025369;28;20022;-76
2022/02/18 04:20:10;;;;;;;1.85;1.38;;;;;;;6.57;63.93;95219.78;5025482;28;20215;-76
2022/02/18 04:22:36;;;;;;;1.77;1.50;;;;;;;6.47;63.81;95206.56;5025042;28;20029;-75
2022/02/18 04:25:02;;;;;;;2.33;1.50;;;;;;;6.33;63.45;95202.66;5025211;28;20029;-76
2022/02/18 04:27:28;;;;;;;2.58;1.40;;;;;;;6.23;63.94;95198.25;5023311;28;20124;-75
2022/02/18 04:29:53;;;;;;;2.78;1.60;;;;;;;6.08;63.61;95197.16;5025336;28;20087;-75
2022/02/18 04:32:19;;;;;;;2.63;1.65;;;;;;;6.03;63.92;95203.72;5024788;28;20022;-77
2022/02/18 04:34:44;;;;;;;2.50;1.73;;;;;;;6.01;63.73;95211.03;5024008;28;20373;-77
2022/02/18 04:37:10;;;;;;;3.95;2.08;;;;;;;6.00;63.87;95213.84;5025224;28;20404;-75
2022/02/18 04:39:35;;;;;;;3.17;2.03;;;;;;;5.89;63.10;95220.25;5024537;28;20349;-75
2022/02/18 04:42:01;;;;;;;3.50;2.22;;;;;;;5.98;62.99;95211.34;5024795;28;20022;-77
2022/02/18 04:44:26;;;;;;;2.90;2.13;;;;;;;5.99;62.65;95220.16;5023234;28;20030;-75
2022/02/18 04:46:51;;;;;;;4.70;2.50;;;;;;;6.00;62.70;95214.69;5023671;28;20613;-76
2022/02/18 04:49:17;;;;;;;3.25;2.00;;;;;;;6.07;60.55;95217.63;5024436;28;20064;-76
2022/02/18 04:51:42;;;;;;;3.10;1.80;;;;;;;5.96;61.12;95209.84;5025838;28;20037;-76
2022/02/18 04:54:08;;;;;;;2.13;1.60;;;;;;;5.98;60.64;95216.66;5025678;28;20477;-78
2022/02/18 04:56:33;;;;;;;1.70;1.58;;;;;;;5.88;60.86;95224.75;5024828;28;20604;-79
2022/02/18 04:58:59;;;;;;;3.28;2.03;;;;;;;5.78;60.48;95222.16;5007361;28;20479;-76
2022/02/18 05:01:25;;;;;;;2.88;1.88;;;;;;;5.86;60.83;95228.53;5024854;28;20562;-78
2022/02/18 05:03:50;;;;;;;1.90;1.65;;;;;;;5.87;60.94;95220.41;5024786;28;20033;-79
2022/02/18 05:06:16;;;;;;;3.00;1.90;;;;;;;5.90;59.95;95224.59;5006941;28;20065;-78
2022/02/18 05:08:42;;;;;;;3.28;1.80;;;;;;;5.92;59.86;95249.22;5025163;28;20514;-76
2022/02/18 05:11:07;;;;;;;2.30;1.90;;;;;;;5.87;60.72;95248.88;5024810;28;20025;-75
2022/02/18 05:13:33;;;;;;;2.10;1.73;;;;;;;5.88;60.46;95266.50;5023415;28;20045;-76
2022/02/18 05:15:58;;;;;;;1.92;1.48;;;;;;;5.82;60.31;95275.91;5025355;28;20022;-77
2022/02/18 05:18:24;;;;;;;2.28;1.70;;;;;;;5.72;61.11;95276.00;5024646;28;20021;-77
2022/02/18 05:20:49;;;;;;;2.40;1.88;;;;;;;5.77;60.63;95288.84;5024386;28;20116;-76
2022/02/18 05:23:15;;;;;;;3.35;2.00;;;;;;;5.72;60.76;95297.28;5028338;28;20349;-75
2022/02/18 05:25:40;;;;;;;2.38;1.70;;;;;;;5.76;59.82;95303.13;5028134;28;20029;-75
2022/02/18 05:28:07;;;;;;;2.63;1.65;;;;;;;5.77;60.29;95304.81;5026775;28;20029;-77
2022/02/18 05:30:32;;;;;;;2.58;1.80;;;;;;;5.80;59.50;95310.66;5028714;28;20029;-76
2022/02/18 05:32:58;;;;;;;2.05;1.70;;;;;;;5.78;59.55;95294.03;5028354;28;20032;-77
2022/02/18 05:35:23;;;;;;;2.03;1.60;;;;;;;5.79;59.71;95286.88;5028392;28;20036;-75
2022/02/18 05:37:49;;;;;;;2.30;1.80;;;;;;;5.71;59.28;95316.06;5028237;28;20025;-75
2022/02/18 05:40:14;;;;;;;2.92;1.75;;;;;;;5.74;59.25;95329.91;5028275;28;20018;-77
2022/02/18 05:42:40;;;;;;;2.97;1.90;;;;;;;5.76;59.07;95327.94;5027989;28;20030;-77
2022/02/18 05:45:07;;;;;;;2.20;1.60;;;;;;;5.75;58.10;95323.59;5027943;28;20563;-77
2022/02/18 05:47:35;;;;;;;3.13;1.70;;;;;;;5.79;58.20;95327.63;5028225;28;20147;-76
2022/02/18 05:50:03;;;;;;;3.10;1.80;;;;;;;5.79;58.70;95335.63;5027554;28;20060;-78
2022/02/18 05:52:28;;;;;;;2.13;1.60;;;;;;;5.81;58.35;95333.66;5026885;28;20039;-76
2022/02/18 05:54:53;;;;;;;2.53;1.85;;;;;;;5.93;57.72;95318.28;5028182;28;20018;-76
2022/02/18 05:57:19;;;;;;;6.47;2.05;;;;;;;5.92;57.81;95329.09;5028023;28;20029;-75
2022/02/18 05:59:44;;;;;;;2.92;1.80;;;;;;;5.91;57.33;95333.59;5027668;28;20029;-76
2022/02/18 06:02:10;;;;;;;2.15;1.48;;;;;;;5.78;58.10;95333.94;5028217;28;20052;-76
2022/02/18 06:04:35;;;;;;;4.03;1.90;;;;;;;5.88;57.76;95354.34;5027846;28;20030;-76
2022/02/18 06:07:01;;;;;;;3.42;1.80;;;;;;;5.90;58.17;95353.19;5027158;28;20021;-75
2022/02/18 06:09:26;;;;;;;4.32;1.80;;;;;;;5.87;58.16;95356.16;5026779;28;20152;-76
2022/02/18 06:11:52;;;;;;;2.15;1.70;;;;;;;5.91;57.67;95364.69;5027423;28;20104;-75
2022/02/18 06:14:17;;;;;;;3.67;1.92;;;;;;;5.97;57.59;95366.75;5027735;28;20033;-77
2022/02/18 06:16:43;;;;;;;2.60;1.80;;;;;;;5.97;57.64;95369.41;5027727;28;20029;-77
2022/02/18 06:19:08;;;;;;;5.15;2.22;;;;;;;5.91;57.81;95368.19;5027172;28;20477;-76
2022/02/18 06:21:35;;;;;;;3.35;1.83;;;;;;;5.98;57.34;95379.06;5027216;28;20377;-76
2022/02/18 06:24:00;;;;;;;2.30;1.80;;;;;;;5.93;56.97;95382.19;5025771;28;20037;-78
2022/02/18 06:26:25;;;;;;;2.28;1.60;;;;;;;5.92;56.90;95371.69;5027433;28;20030;-76
2022/02/18 06:28:51;;;;;;;3.08;1.65;;;;;;;5.95;57.00;95376.69;5027011;28;20520;-77
2022/02/18 06:31:18;;;;;;;2.75;1.50;;;;;;;6.08;56.88;95383.53;5027570;28;20483;-76
2022/02/18 06:33:47;;;;;;;2.63;1.70;;;;;;;6.10;56.06;95381.56;5027178;28;20443;-76
2022/02/18 06:36:12;;;;;;;3.65;1.80;;;;;;;6.30;56.24;95377.75;5027175;28;20032;-75
2022/02/18 06:38:40;;;;;;;4.70;1.83;;;;;;;6.56;55.01;95378.84;5027192;28;20030;-75
2022/02/18 06:41:06;;;;;;;2.90;1.90;;;;;;;6.67;54.60;95375.91;5029116;28;20029;-74
2022/02/18 06:43:31;;;;;;;3.28;1.77;;;;;;;6.56;54.41;95378.84;5028789;28;20408;-75
2022/02/18 06:45:56;;;;;;;5.10;2.20;;;;;;;6.68;54.69;95374.94;5027085;28;20379;-76
2022/02/18 06:48:22;;;;;;;3.47;1.73;;;;;;;6.85;54.06;95393.72;5027279;28;20499;-76
2022/02/18 06:50:47;;;;;;;5.35;1.73;;;;;;;6.92;53.43;95378.78;5026833;28;20515;-76
2022/02/18 06:53:13;;;;;;;2.45;1.48;;;;;;;6.91;53.56;95392.28;5026619;28;20415;-76
2022/02/18 06:55:38;;;;;;;2.50;1.45;;;;;;;6.72;53.61;95383.47;5027276;28;20022;-77
2022/02/18 06:58:04;;;;;;;3.58;1.70;;;;;;;6.64;53.70;95392.22;5025160;28;20026;-79
2022/02/18 07:00:30;;;;;;;5.68;1.90;;;;;;;6.46;54.96;95402.91;5026815;28;20059;-77
2022/02/18 07:02:55;;;;;;;3.35;1.90;;;;;;;6.45;55.31;95398.53;5025308;28;20033;-76
2022/02/18 07:05:21;;;;;;;9.55;2.03;;;;;;;6.44;56.26;95410.19;5025357;28;20483;-77
2022/02/18 07:07:46;;;;;;;2.72;1.80;;;;;;;6.52;55.48;95420.94;5025101;28;20080;-76
2022/02/18 07:10:12;;;;;;;4.35;2.30;;;;;;;6.46;56.11;95408.22;5026638;28;20113;-77
2022/02/18 07:12:38;;;;;;;4.97;2.05;;;;;;;6.52;56.09;95415.63;5025419;28;20045;-78
2022/02/18 07:15:04;;;;;;;4.32;1.85;;;;;;;6.49;55.36;95423.06;5026283;28;20075;-78
2022/02/18 07:17:30;;;;;;;3.67;2.08;;;;;;;6.53;55.22;95414.63;5026775;28;20160;-76
2022/02/18 07:19:55;;;;;;;9.77;1.98;;;;;;;6.53;55.23;95422.59;5026446;28;20045;-75
2022/02/18 07:22:21;;;;;;;4.50;1.70;;;;;;;6.53;54.79;95401.28;5024939;28;20035;-77
2022/02/18 07:24:47;;;;;;;4.72;1.95;;;;;;;6.53;54.46;95401.28;5026076;28;20106;-75
2022/02/18 07:27:12;;;;;;;2.65;1.60;;;;;;;6.58;55.01;95400.81;5008565;28;20056;-76
2022/02/18 07:29:38;;;;;;;3.08;1.60;;;;;;;6.64;54.99;95402.06;5026198;28;20026;-76
2022/02/18 07:32:04;;;;;;;5.93;1.75;;;;;;;6.67;53.88;95381.25;5025132;28;20026;-77
2022/02/18 07:34:29;;;;;;;4.22;1.52;;;;;;;6.78;54.20;95388.19;5026646;28;20029;-77
2022/02/18 07:36:55;;;;;;;5.50;1.80;;;;;;;6.75;53.78;95383.16;5024904;28;20025;-77
2022/02/18 07:39:20;;;;;;;2.47;1.73;;;;;;;6.94;53.45;95375.97;5025693;28;20053;-75
2022/02/18 07:41:46;;;;;;;4.45;1.55;;;;;;;7.01;53.29;95385.00;5025965;28;20040;-76
2022/02/18 07:44:11;;;;;;;3.78;1.63;;;;;;;6.99;52.14;95396.81;5025430;28;20542;-76
2022/02/18 07:46:36;;;;;;;4.30;1.70;;;;;;;6.94;51.67;95407.97;5025789;28;20029;-76
2022/02/18 07:49:02;;;;;;;3.03;1.80;;;;;;;6.95;53.09;95404.28;5008368;28;20037;-78
2022/02/18 07:51:27;;;;;;;4.95;1.88;;;;;;;7.08;53.63;95401.22;5025781;28;20037;-77
2022/02/18 07:53:53;;;;;;;3.58;1.63;;;;;;;7.17;52.13;95407.47;5025596;28;20491;-76
2022/02/18 07:56:18;;;;;;;5.03;1.63;;;;;;;7.27;51.23;95418.84;5026136;28;20025;-76
2022/02/18 07:58:44;;;;;;;3.53;1.80;;;;;;;7.24;51.02;95418.34;5025739;28;20369;-76
2022/02/18 08:01:17;;;;;;;3.65;1.85;;;;;;;7.34;51.25;95415.56;5026027;28;20083;-75
2022/02/18 08:03:45;;;;;;;4.18;1.77;;;;;;;7.40;52.30;95418.44;5025458;28;20029;-76
2022/02/18 08:06:11;;;;;;;5.20;1.70;;;;;;;7.42;49.97;95408.44;5025790;28;20484;-76
2022/02/18 08:08:38;;;;;;;4.45;1.70;;;;;;;7.51;50.41;95428.00;5025205;28;20044;-76
2022/02/18 08:11:04;;;;;;;5.38;1.63;;;;;;;7.47;49.85;95424.00;5025609;28;20033;-76
2022/02/18 08:13:30;;;;;;;4.45;1.70;;;;;;;7.57;49.42;95428.38;5023921;28;20064;-77
2022/02/18 08:15:55;;;;;;;4.38;1.67;;;;;;;7.60;50.13;95420.03;5025431;28;20033;-77
2022/02/18 08:18:21;;;;;;;8.00;2.20;;;;;;;7.63;50.39;95423.25;5024936;28;20029;-76
2022/02/18 08:20:47;;;;;;;3.83;1.92;;;;;;;7.68;50.29;95420.09;5025303;28;20040;-76
2022/02/18 08:23:12;;;;;;;6.35;1.90;;;;;;;7.77;48.97;95407.63;5024155;28;20025;-75
2022/02/18 08:25:38;;;;;;;4.65;1.70;;;;;;;7.74;49.88;95418.59;5024927;28;20052;-77
2022/02/18 08:28:04;;;;;;;4.32;2.17;;;;;;;7.72;49.10;95409.94;5025591;28;20040;-76
2022/02/18 08:30:29;;;;;;;2.55;1.70;;;;;;;7.75;49.28;95420.28;5025085;28;20029;-76
2022/02/18 08:32:54;;;;;;;3.92;2.10;;;;;;;7.69;48.67;95412.94;5025320;28;20045;-77
2022/02/18 08:35:20;;;;;;;8.57;1.73;;;;;;;7.73;48.81;95412.44;5025451;28;20381;-76
2022/02/18 08:37:45;;;;;;;3.83;2.15;;;;;;;7.69;48.25;95402.25;5024726;28;20024;-77
2022/02/18 08:40:11;;;;;;;3.53;1.90;;;;;;;7.66;48.49;95406.06;5025308;28;20524;-77
2022/02/18 08:42:37;;;;;;;5.75;2.13;;;;;;;7.63;47.51;95409.91;5024652;28;20112;-76
2022/02/18 08:45:02;;;;;;;4.07;1.88;;;;;;;7.62;47.46;95394.88;5025600;28;20059;-78
2022/02/18 08:47:28;;;;;;;5.22;2.10;;;;;;;7.64;48.25;95397.41;5024695;28;20033;-77
2022/02/18 08:49:53;;;;;;;4.63;1.90;;;;;;;7.67;47.72;95402.41;5025251;28;20025;-76
2022/02/18 08:52:18;;;;;;;4.20;1.60;;;;;;;7.64;47.80;95400.06;5023977;28;20485;-77
2022/02/18 08:54:44;;;;;;;3.75;2.00;;;;;;;7.66;47.79;95400.72;5024802;28;20036;-77
2022/02/18 08:57:10;;;;;;;4.63;1.60;;;;;;;7.82;47.40;95405.28;5029399;28;20468;-76
2022/02/18 08:59:38;;;;;;;4.43;1.88;;;;;;;7.85;46.41;95421.00;5028969;28;20025;-76
2022/02/18 09:02:03;;;;;;;3.10;1.80;;;;;;;7.99;45.86;95416.06;5027953;28;20161;-76
2022/02/18 09:04:29;;;;;;;3.53;1.90;;;;;;;8.05;46.67;95423.41;5029425;28;20033;-77
2022/02/18 09:06:54;;;;;;;6.25;1.88;;;;;;;8.11;45.38;95420.09;5028971;28;20499;-75
2022/02/18 09:09:20;;;;;;;2.28;1.58;;;;;;;8.18;44.93;95420.28;5028889;28;20029;-75
2022/02/18 09:11:45;;;;;;;3.95;1.65;;;;;;;8.17;45.00;95402.59;5027521;28;20464;-75
2022/02/18 09:14:11;;;;;;;3.78;1.90;;;;;;;8.23;45.53;95407.28;5029505;28;20550;-77
2022/02/18 09:16:36;;;;;;;3.88;1.75;;;;;;;8.08;44.15;95419.56;5029023;28;20026;-78
2022/02/18 09:19:02;;;;;;;3.63;1.75;;;;;;;8.10;44.37;95430.94;5028689;28;20037;-76
2022/02/18 09:21:27;;;;;;;5.47;1.95;;;;;;;8.13;44.08;95422.59;5028569;28;20032;-76
2022/02/18 09:23:53;;;;;;;4.40;1.90;;;;;;;8.17;44.25;95426.66;5028581;28;20087;-75
2022/02/18 09:26:20;;;;;;;4.63;1.60;;;;;;;8.33;44.46;95422.34;5028429;28;20025;-77
2022/02/18 09:28:45;;;;;;;4.13;1.90;;;;;;;8.38;44.47;95414.66;5028459;28;20048;-76
2022/02/18 09:31:11;;;;;;;5.63;1.90;;;;;;;8.41;44.12;95415.16;5028777;28;20030;-76
2022/02/18 09:33:37;;;;;;;3.05;1.85;;;;;;;8.51;43.62;95415.00;5027113;28;20029;-77
2022/02/18 09:36:02;;;;;;;4.43;1.95;;;;;;;8.41;42.81;95419.69;5026878;28;20030;-75
2022/02/18 09:38:28;;;;;;;4.90;3.47;;;;;;;8.54;43.11;95419.22;5028381;28;20032;-76
2022/02/18 09:40:54;;;;;;;5.45;2.35;;;;;;;8.60;42.90;95407.88;5026662;28;20546;-75
2022/02/18 09:43:19;;;;;;;5.60;1.80;;;;;;;8.60;42.36;95423.94;5028227;28;20021;-76
2022/02/18 09:45:45;;;;;;;5.22;2.10;;;;;;;8.59;41.99;95421.41;5028295;28;20021;-78
2022/02/18 09:48:12;;;;;;;4.53;2.30;;;;;;;8.71;42.26;95428.13;5028235;28;20458;-77
2022/02/18 09:50:38;;;;;;;3.40;2.03;;;;;;;8.75;41.40;95426.78;5026914;28;20040;-78
2022/02/18 09:53:03;;;;;;;7.57;1.67;;;;;;;8.69;40.51;95448.81;5010549;28;20033;-77
2022/02/18 09:55:30;;;;;;;6.30;1.77;;;;;;;8.59;40.75;95438.28;5028175;28;20056;-78
2022/02/18 09:57:56;;;;;;;5.68;1.60;;;;;;;8.65;40.14;95436.81;4993953;28;20053;-77
2022/02/18 10:00:21;;;;;;;6.55;2.05;;;;;;;8.71;40.45;95441.47;5026432;28;20451;-77
2022/02/18 10:02:48;;;;;;;8.63;1.75;;;;;;;8.80;40.21;95441.50;5028047;28;20075;-78
2022/02/18 10:05:14;;;;;;;7.15;1.92;;;;;;;8.74;39.57;95427.78;5026675;28;20022;-75
2022/02/18 10:08:07;;;;;;;4.05;1.80;;;;;;;8.87;39.99;95424.63;5027597;28;20057;-79
2022/02/18 10:10:33;;;;;;;2.83;1.60;;;;;;;8.94;39.71;95414.09;5029899;28;20025;-76
2022/02/18 10:12:58;;;;;;;3.20;1.50;;;;;;;8.99;39.39;95409.09;5028419;28;20049;-76
2022/02/18 10:15:24;;;;;;;3.03;1.70;;;;;;;9.07;39.94;95404.72;5028134;28;20492;-78
2022/02/18 10:17:49;;;;;;;3.85;1.70;;;;;;;9.14;38.61;95395.84;5027297;28;20481;-80
2022/02/18 10:20:27;;;;;;;2.97;1.40;;;;;;;9.08;38.84;95391.16;5027971;28;20021;-77
2022/02/18 10:22:59;;;;;;;3.35;1.52;;;;;;;9.04;38.47;95403.22;5027482;28;20040;-77
2022/02/18 10:25:30;;;;;;;3.57;1.63;;;;;;;9.08;38.49;95395.69;5027397;28;20029;-75
2022/02/18 10:27:56;;;;;;;3.33;1.60;;;;;;;9.13;38.54;95386.16;5027536;28;20047;-79
2022/02/18 10:30:28;;;;;;;4.82;2.55;;;;;;;9.12;38.80;95391.69;5027547;28;20022;-76
2022/02/18 10:33:09;;;;;;;4.63;1.83;;;;;;;9.24;38.22;95373.41;5027578;28;20687;-77
2022/02/18 10:35:35;;;;;;;3.47;1.50;;;;;;;9.19;38.20;95395.34;5027615;28;20051;-77
2022/02/18 10:38:00;;;;;;;3.95;1.45;;;;;;;9.22;36.94;95391.50;5027603;28;20439;-76
2022/02/18 10:40:26;;;;;;;4.22;1.50;;;;;;;9.09;37.07;95382.13;5027482;28;20022;-76
2022/02/18 10:42:52;;;;;;;2.75;1.45;;;;;;;9.08;36.10;95379.63;5026058;28;20183;-77
2022/02/18 10:45:26;;;;;;;3.85;1.50;;;;;;;9.07;36.75;95375.28;5009573;28;20032;-78
2022/02/18 10:48:07;;;;;;;3.15;1.58;;;;;;;9.15;36.67;95372.59;5026879;28;20037;-77
2022/02/18 10:50:32;;;;;;;3.92;1.60;;;;;;;9.23;37.30;95382.47;5027612;28;20105;-76
2022/02/18 10:53:08;;;;;;;2.58;1.20;;;;;;;9.32;36.47;95367.25;5026031;28;20033;-77
2022/02/18 10:55:49;;;;;;;2.40;1.48;;;;;;;9.37;37.45;95380.91;5027285;28;20029;-77
2022/02/18 10:58:19;;;;;;;3.78;1.50;;;;;;;9.35;36.67;95373.06;5026780;28;20025;-76
2022/02/18 11:00:45;;;;;;;6.00;1.42;;;;;;;9.37;36.00;95391.63;5026957;28;20033;-75
2022/02/18 11:03:10;;;;;;;2.40;1.40;;;;;;;9.42;35.95;95383.09;5025362;28;20511;-75
2022/02/18 11:05:37;;;;;;;3.05;1.40;;;;;;;9.42;37.16;95370.53;5026514;28;20029;-77
2022/02/18 11:08:03;;;;;;;2.80;1.60;;;;;;;9.44;35.84;95381.06;5026877;28;20044;-75
2022/02/18 11:10:32;;;;;;;4.07;1.50;;;;;;;9.55;35.74;95386.06;5026837;28;20227;-75
2022/02/18 11:12:57;;;;;;;3.42;1.38;;;;;;;9.59;34.79;95383.91;5025020;28;20037;-75
2022/02/18 11:15:23;;;;;;;3.78;1.40;;;;;;;9.60;35.73;95370.34;5026577;28;20046;-76
2022/02/18 11:17:50;;;;;;;4.00;1.90;;;;;;;9.72;35.28;95365.41;5025036;28;20029;-76
2022/02/18 11:20:15;;;;;;;3.20;1.70;;;;;;;9.83;35.32;95352.66;5025198;28;20030;-77
2022/02/18 11:22:41;;;;;;;4.05;1.42;;;;;;;9.91;34.60;95376.75;5025072;28;20026;-76
2022/02/18 11:25:07;;;;;;;2.80;1.45;;;;;;;9.89;34.00;95378.75;5009244;28;20037;-77
2022/02/18 11:27:35;;;;;;;2.25;1.58;;;;;;;9.89;34.05;95381.44;5025011;28;20037;-76
2022/02/18 11:30:00;;;;;;;13.25;3.15;;;;;;;9.95;33.89;95339.69;5008747;28;20147;-76
2022/02/18 11:32:27;;;;;;;4.07;1.40;;;;;;;10.02;33.78;95371.00;5026508;28;20409;-75
2022/02/18 11:35:28;;;;;;;4.90;1.80;;;;;;;10.10;33.75;95371.97;5008774;28;20172;-76